sensor_id;sensor_type;location;lat;lon;timestamp;P1;durP1;ratioP1;P2;durP2;ratioP2
50337;SDS011;46221;51.178;5.900;2023-07-16T00:00:09;2.80;;;1.60;;
50337;SDS011;46221;51.178;5.900;2023-07-16T00:02:36;4.07;;;1.75;;
50337;SDS011;46221;51.178;5.900;2023-07-16T00:05:03;4.00;;;1.88;;
50337;SDS011;46221;51.178;5.900;2023-07-16T00:07:30;4.13;;;1.50;;
50337;SDS011;46221;51.178;5.900;2023-07-16T00:09:56;3.25;;;1.63;;
50337;SDS011;46221;51.178;5.900;2023-07-16T00:12:23;3.75;;;1.58;;
50337;SDS011;46221;51.178;5.900;2023-07-16T00:14:49;2.78;;;1.50;;
50337;SDS011;46221;51.178;5.900;2023-07-16T00:17:15;4.07;;;1.55;;
50337;SDS011;46221;51.178;5.900;2023-07-16T00:19:43;3.40;;;1.52;;
50337;SDS011;46221;51.178;5.900;2023-07-16T00:22:09;3.72;;;1.60;;
50337;SDS011;46221;51.178;5.900;2023-07-16T00:24:35;3.10;;;1.52;;
50337;SDS011;46221;51.178;5.900;2023-07-16T00:27:02;2.60;;;1.35;;
50337;SDS011;46221;51.178;5.900;2023-07-16T00:29:30;3.58;;;1.20;;
50337;SDS011;46221;51.178;5.900;2023-07-16T00:31:56;4.68;;;1.80;;
50337;SDS011;46221;51.178;5.900;2023-07-16T00:34:22;3.00;;;1.40;;
50337;SDS011;46221;51.178;5.900;2023-07-16T00:36:49;2.88;;;1.40;;
50337;SDS011;46221;51.178;5.900;2023-07-16T00:39:15;3.78;;;1.83;;
50337;SDS011;46221;51.178;5.900;2023-07-16T00:41:41;2.55;;;1.40;;
50337;SDS011;46221;51.178;5.900;2023-07-16T00:44:08;3.15;;;1.30;;
50337;SDS011;46221;51.178;5.900;2023-07-16T00:46:34;3.22;;;1.30;;
50337;SDS011;46221;51.178;5.900;2023-07-16T00:49:01;1.50;;;1.00;;
50337;SDS011;46221;51.178;5.900;2023-07-16T00:51:27;3.22;;;1.38;;
50337;SDS011;46221;51.178;5.900;2023-07-16T00:53:54;3.05;;;1.23;;
50337;SDS011;46221;51.178;5.900;2023-07-16T00:56:20;3.22;;;1.50;;
50337;SDS011;46221;51.178;5.900;2023-07-16T00:58:47;2.83;;;1.20;;
50337;SDS011;46221;51.178;5.900;2023-07-16T01:01:13;2.20;;;1.00;;
50337;SDS011;46221;51.178;5.900;2023-07-16T01:03:40;2.80;;;1.25;;
50337;SDS011;46221;51.178;5.900;2023-07-16T01:06:24;2.35;;;0.93;;
50337;SDS011;46221;51.178;5.900;2023-07-16T01:11:18;2.88;;;1.38;;
50337;SDS011;46221;51.178;5.900;2023-07-16T01:13:44;3.10;;;1.38;;
50337;SDS011;46221;51.178;5.900;2023-07-16T01:16:17;3.22;;;1.65;;
50337;SDS011;46221;51.178;5.900;2023-07-16T01:18:44;3.20;;;1.30;;
50337;SDS011;46221;51.178;5.900;2023-07-16T01:21:11;4.30;;;1.30;;
50337;SDS011;46221;51.178;5.900;2023-07-16T01:23:59;2.28;;;1.05;;
50337;SDS011;46221;51.178;5.900;2023-07-16T01:31:52;2.15;;;1.10;;
50337;SDS011;46221;51.178;5.900;2023-07-16T01:34:20;3.35;;;1.08;;
50337;SDS011;46221;51.178;5.900;2023-07-16T01:36:47;2.70;;;1.23;;
50337;SDS011;46221;51.178;5.900;2023-07-16T01:39:14;2.80;;;1.20;;
50337;SDS011;46221;51.178;5.900;2023-07-16T01:41:40;3.30;;;1.50;;
50337;SDS011;46221;51.178;5.900;2023-07-16T01:44:06;2.90;;;1.00;;
50337;SDS011;46221;51.178;5.900;2023-07-16T01:46:33;2.85;;;1.00;;
50337;SDS011;46221;51.178;5.900;2023-07-16T01:49:00;3.03;;;0.95;;
50337;SDS011;46221;51.178;5.900;2023-07-16T01:51:26;2.40;;;1.13;;
50337;SDS011;46221;51.178;5.900;2023-07-16T01:53:53;2.85;;;1.20;;
50337;SDS011;46221;51.178;5.900;2023-07-16T01:56:19;2.33;;;1.13;;
50337;SDS011;46221;51.178;5.900;2023-07-16T01:58:46;3.40;;;1.10;;
50337;SDS011;46221;51.178;5.900;2023-07-16T02:01:12;2.90;;;1.08;;
50337;SDS011;46221;51.178;5.900;2023-07-16T02:03:39;3.35;;;1.33;;
50337;SDS011;46221;51.178;5.900;2023-07-16T02:06:05;3.80;;;1.10;;
50337;SDS011;46221;51.178;5.900;2023-07-16T02:08:32;1.55;;;0.77;;
50337;SDS011;46221;51.178;5.900;2023-07-16T02:10:58;2.33;;;1.08;;
50337;SDS011;46221;51.178;5.900;2023-07-16T02:13:25;2.78;;;1.17;;
50337;SDS011;46221;51.178;5.900;2023-07-16T02:15:51;2.33;;;1.05;;
50337;SDS011;46221;51.178;5.900;2023-07-16T02:18:18;5.50;;;1.17;;
50337;SDS011;46221;51.178;5.900;2023-07-16T02:20:44;2.65;;;1.20;;
50337;SDS011;46221;51.178;5.900;2023-07-16T02:23:11;2.95;;;1.00;;
50337;SDS011;46221;51.178;5.900;2023-07-16T02:25:37;2.78;;;1.10;;
50337;SDS011;46221;51.178;5.900;2023-07-16T02:28:04;2.30;;;1.23;;
50337;SDS011;46221;51.178;5.900;2023-07-16T02:30:30;2.33;;;1.10;;
50337;SDS011;46221;51.178;5.900;2023-07-16T02:32:56;2.65;;;1.00;;
50337;SDS011;46221;51.178;5.900;2023-07-16T02:35:23;3.40;;;1.05;;
50337;SDS011;46221;51.178;5.900;2023-07-16T02:37:49;3.40;;;1.13;;
50337;SDS011;46221;51.178;5.900;2023-07-16T02:40:16;3.28;;;1.30;;
50337;SDS011;46221;51.178;5.900;2023-07-16T02:42:42;3.00;;;1.17;;
50337;SDS011;46221;51.178;5.900;2023-07-16T02:45:09;1.90;;;0.90;;
50337;SDS011;46221;51.178;5.900;2023-07-16T02:47:35;2.33;;;1.00;;
50337;SDS011;46221;51.178;5.900;2023-07-16T02:50:01;4.93;;;1.30;;
50337;SDS011;46221;51.178;5.900;2023-07-16T02:52:28;2.65;;;1.02;;
50337;SDS011;46221;51.178;5.900;2023-07-16T02:54:54;5.95;;;1.40;;
50337;SDS011;46221;51.178;5.900;2023-07-16T02:57:21;2.80;;;1.02;;
50337;SDS011;46221;51.178;5.900;2023-07-16T02:59:48;3.25;;;1.30;;
50337;SDS011;46221;51.178;5.900;2023-07-16T03:02:14;4.22;;;1.35;;
50337;SDS011;46221;51.178;5.900;2023-07-16T03:04:41;2.97;;;1.17;;
50337;SDS011;46221;51.178;5.900;2023-07-16T03:07:07;2.30;;;1.10;;
50337;SDS011;46221;51.178;5.900;2023-07-16T03:09:34;2.95;;;1.60;;
50337;SDS011;46221;51.178;5.900;2023-07-16T03:12:00;2.97;;;1.40;;
50337;SDS011;46221;51.178;5.900;2023-07-16T03:14:27;2.72;;;1.30;;
50337;SDS011;46221;51.178;5.900;2023-07-16T03:16:53;3.40;;;1.10;;
50337;SDS011;46221;51.178;5.900;2023-07-16T03:19:19;2.85;;;1.27;;
50337;SDS011;46221;51.178;5.900;2023-07-16T03:21:46;2.00;;;1.15;;
50337;SDS011;46221;51.178;5.900;2023-07-16T03:24:12;2.65;;;1.20;;
50337;SDS011;46221;51.178;5.900;2023-07-16T03:26:39;2.90;;;1.40;;
50337;SDS011;46221;51.178;5.900;2023-07-16T03:29:05;2.58;;;1.20;;
50337;SDS011;46221;51.178;5.900;2023-07-16T03:31:31;4.60;;;1.30;;
50337;SDS011;46221;51.178;5.900;2023-07-16T03:33:58;3.45;;;1.40;;
50337;SDS011;46221;51.178;5.900;2023-07-16T03:36:24;3.03;;;1.30;;
50337;SDS011;46221;51.178;5.900;2023-07-16T03:38:51;3.22;;;1.38;;
50337;SDS011;46221;51.178;5.900;2023-07-16T03:41:17;3.55;;;1.48;;
50337;SDS011;46221;51.178;5.900;2023-07-16T03:43:44;3.60;;;1.65;;
50337;SDS011;46221;51.178;5.900;2023-07-16T03:46:10;3.60;;;1.70;;
50337;SDS011;46221;51.178;5.900;2023-07-16T03:48:37;2.72;;;1.40;;
50337;SDS011;46221;51.178;5.900;2023-07-16T03:51:03;3.38;;;1.40;;
50337;SDS011;46221;51.178;5.900;2023-07-16T03:53:29;3.60;;;1.50;;
50337;SDS011;46221;51.178;5.900;2023-07-16T03:55:56;2.97;;;1.38;;
50337;SDS011;46221;51.178;5.900;2023-07-16T03:58:22;3.45;;;1.42;;
50337;SDS011;46221;51.178;5.900;2023-07-16T04:00:49;4.18;;;1.42;;
50337;SDS011;46221;51.178;5.900;2023-07-16T04:03:16;2.85;;;1.35;;
50337;SDS011;46221;51.178;5.900;2023-07-16T04:05:43;3.88;;;1.58;;
50337;SDS011;46221;51.178;5.900;2023-07-16T04:08:09;4.05;;;1.63;;
50337;SDS011;46221;51.178;5.900;2023-07-16T04:10:36;2.67;;;1.20;;
50337;SDS011;46221;51.178;5.900;2023-07-16T04:13:02;4.88;;;1.50;;
50337;SDS011;46221;51.178;5.900;2023-07-16T04:15:29;2.88;;;1.50;;
50337;SDS011;46221;51.178;5.900;2023-07-16T04:17:55;3.17;;;1.42;;
50337;SDS011;46221;51.178;5.900;2023-07-16T04:20:22;3.10;;;1.48;;
50337;SDS011;46221;51.178;5.900;2023-07-16T04:22:48;3.40;;;1.52;;
50337;SDS011;46221;51.178;5.900;2023-07-16T04:25:15;3.95;;;1.40;;
50337;SDS011;46221;51.178;5.900;2023-07-16T04:27:42;5.50;;;1.88;;
50337;SDS011;46221;51.178;5.900;2023-07-16T04:30:10;2.78;;;1.50;;
50337;SDS011;46221;51.178;5.900;2023-07-16T04:32:36;2.42;;;1.30;;
50337;SDS011;46221;51.178;5.900;2023-07-16T04:35:03;3.95;;;1.40;;
50337;SDS011;46221;51.178;5.900;2023-07-16T04:37:29;2.97;;;1.63;;
50337;SDS011;46221;51.178;5.900;2023-07-16T04:39:56;2.35;;;1.35;;
50337;SDS011;46221;51.178;5.900;2023-07-16T04:42:22;2.92;;;1.33;;
50337;SDS011;46221;51.178;5.900;2023-07-16T04:44:49;3.78;;;1.85;;
50337;SDS011;46221;51.178;5.900;2023-07-16T04:47:15;4.55;;;1.77;;
50337;SDS011;46221;51.178;5.900;2023-07-16T04:49:41;2.83;;;1.40;;
50337;SDS011;46221;51.178;5.900;2023-07-16T04:52:08;4.22;;;1.60;;
50337;SDS011;46221;51.178;5.900;2023-07-16T04:54:35;2.75;;;1.55;;
50337;SDS011;46221;51.178;5.900;2023-07-16T04:57:01;2.78;;;1.40;;
50337;SDS011;46221;51.178;5.900;2023-07-16T04:59:28;4.25;;;1.60;;
50337;SDS011;46221;51.178;5.900;2023-07-16T05:01:54;3.38;;;1.38;;
50337;SDS011;46221;51.178;5.900;2023-07-16T05:04:20;3.03;;;1.50;;
50337;SDS011;46221;51.178;5.900;2023-07-16T05:06:47;3.85;;;1.35;;
50337;SDS011;46221;51.178;5.900;2023-07-16T05:09:13;3.97;;;1.80;;
50337;SDS011;46221;51.178;5.900;2023-07-16T05:11:40;2.58;;;1.40;;
50337;SDS011;46221;51.178;5.900;2023-07-16T05:14:06;5.22;;;1.52;;
50337;SDS011;46221;51.178;5.900;2023-07-16T05:16:32;3.63;;;1.60;;
50337;SDS011;46221;51.178;5.900;2023-07-16T05:18:59;4.65;;;1.58;;
50337;SDS011;46221;51.178;5.900;2023-07-16T05:21:25;3.72;;;1.50;;
50337;SDS011;46221;51.178;5.900;2023-07-16T05:23:52;4.22;;;1.77;;
50337;SDS011;46221;51.178;5.900;2023-07-16T05:26:18;5.70;;;2.08;;
50337;SDS011;46221;51.178;5.900;2023-07-16T05:28:44;5.10;;;2.25;;
50337;SDS011;46221;51.178;5.900;2023-07-16T05:31:11;5.55;;;2.05;;
50337;SDS011;46221;51.178;5.900;2023-07-16T05:33:37;5.43;;;2.30;;
50337;SDS011;46221;51.178;5.900;2023-07-16T05:36:04;4.65;;;1.73;;
50337;SDS011;46221;51.178;5.900;2023-07-16T05:38:30;4.07;;;1.77;;
50337;SDS011;46221;51.178;5.900;2023-07-16T05:41:00;4.25;;;1.70;;
50337;SDS011;46221;51.178;5.900;2023-07-16T05:43:27;4.03;;;1.90;;
50337;SDS011;46221;51.178;5.900;2023-07-16T05:45:54;4.63;;;1.90;;
50337;SDS011;46221;51.178;5.900;2023-07-16T05:48:20;4.93;;;2.30;;
50337;SDS011;46221;51.178;5.900;2023-07-16T05:50:47;5.03;;;1.90;;
50337;SDS011;46221;51.178;5.900;2023-07-16T05:53:13;4.53;;;2.15;;
50337;SDS011;46221;51.178;5.900;2023-07-16T05:55:40;4.90;;;2.47;;
50337;SDS011;46221;51.178;5.900;2023-07-16T05:58:06;6.90;;;2.30;;
50337;SDS011;46221;51.178;5.900;2023-07-16T06:00:32;3.65;;;1.83;;
50337;SDS011;46221;51.178;5.900;2023-07-16T06:02:59;5.10;;;2.40;;
50337;SDS011;46221;51.178;5.900;2023-07-16T06:05:25;5.35;;;2.38;;
50337;SDS011;46221;51.178;5.900;2023-07-16T06:07:52;4.63;;;2.58;;
50337;SDS011;46221;51.178;5.900;2023-07-16T06:10:18;8.70;;;2.75;;
50337;SDS011;46221;51.178;5.900;2023-07-16T06:12:45;4.85;;;2.60;;
50337;SDS011;46221;51.178;5.900;2023-07-16T06:15:11;6.72;;;2.30;;
50337;SDS011;46221;51.178;5.900;2023-07-16T06:17:38;7.82;;;3.28;;
50337;SDS011;46221;51.178;5.900;2023-07-16T06:20:04;4.60;;;2.35;;
50337;SDS011;46221;51.178;5.900;2023-07-16T06:22:32;6.15;;;2.30;;
50337;SDS011;46221;51.178;5.900;2023-07-16T06:24:58;5.60;;;2.67;;
50337;SDS011;46221;51.178;5.900;2023-07-16T06:27:25;6.22;;;2.67;;
50337;SDS011;46221;51.178;5.900;2023-07-16T06:29:52;7.50;;;2.90;;
50337;SDS011;46221;51.178;5.900;2023-07-16T06:32:18;4.82;;;2.70;;
50337;SDS011;46221;51.178;5.900;2023-07-16T06:34:45;6.32;;;2.90;;
50337;SDS011;46221;51.178;5.900;2023-07-16T06:37:11;6.03;;;3.33;;
50337;SDS011;46221;51.178;5.900;2023-07-16T06:39:38;4.40;;;2.67;;
50337;SDS011;46221;51.178;5.900;2023-07-16T06:42:04;5.32;;;2.70;;
50337;SDS011;46221;51.178;5.900;2023-07-16T06:44:31;4.63;;;2.70;;
50337;SDS011;46221;51.178;5.900;2023-07-16T06:46:58;5.95;;;2.92;;
50337;SDS011;46221;51.178;5.900;2023-07-16T06:49:24;7.28;;;2.95;;
50337;SDS011;46221;51.178;5.900;2023-07-16T06:51:51;6.65;;;3.35;;
50337;SDS011;46221;51.178;5.900;2023-07-16T06:54:17;5.82;;;3.08;;
50337;SDS011;46221;51.178;5.900;2023-07-16T06:56:43;5.43;;;3.10;;
50337;SDS011;46221;51.178;5.900;2023-07-16T06:59:10;6.15;;;3.17;;
50337;SDS011;46221;51.178;5.900;2023-07-16T07:01:36;4.75;;;2.70;;
50337;SDS011;46221;51.178;5.900;2023-07-16T07:04:02;6.65;;;3.38;;
50337;SDS011;46221;51.178;5.900;2023-07-16T07:06:29;5.65;;;3.00;;
50337;SDS011;46221;51.178;5.900;2023-07-16T07:08:55;7.25;;;3.38;;
50337;SDS011;46221;51.178;5.900;2023-07-16T07:11:22;5.35;;;3.13;;
50337;SDS011;46221;51.178;5.900;2023-07-16T07:13:48;6.22;;;3.33;;
50337;SDS011;46221;51.178;5.900;2023-07-16T07:16:16;6.50;;;3.20;;
50337;SDS011;46221;51.178;5.900;2023-07-16T07:18:43;8.30;;;3.85;;
50337;SDS011;46221;51.178;5.900;2023-07-16T07:21:09;10.15;;;4.20;;
50337;SDS011;46221;51.178;5.900;2023-07-16T07:23:36;8.45;;;4.45;;
50337;SDS011;46221;51.178;5.900;2023-07-16T07:26:02;8.75;;;4.50;;
50337;SDS011;46221;51.178;5.900;2023-07-16T07:28:29;8.75;;;4.80;;
50337;SDS011;46221;51.178;5.900;2023-07-16T07:30:55;10.30;;;5.05;;
50337;SDS011;46221;51.178;5.900;2023-07-16T07:33:22;9.13;;;4.53;;
50337;SDS011;46221;51.178;5.900;2023-07-16T07:35:48;11.93;;;5.20;;
50337;SDS011;46221;51.178;5.900;2023-07-16T07:38:22;9.10;;;5.05;;
50337;SDS011;46221;51.178;5.900;2023-07-16T07:40:48;7.70;;;5.05;;
50337;SDS011;46221;51.178;5.900;2023-07-16T07:43:15;10.93;;;5.25;;
50337;SDS011;46221;51.178;5.900;2023-07-16T07:45:41;8.40;;;4.70;;
50337;SDS011;46221;51.178;5.900;2023-07-16T07:48:07;9.52;;;5.00;;
50337;SDS011;46221;51.178;5.900;2023-07-16T07:50:34;10.35;;;5.07;;
50337;SDS011;46221;51.178;5.900;2023-07-16T07:53:00;11.68;;;4.78;;
50337;SDS011;46221;51.178;5.900;2023-07-16T07:55:27;9.57;;;4.78;;
50337;SDS011;46221;51.178;5.900;2023-07-16T07:57:53;8.77;;;4.82;;
50337;SDS011;46221;51.178;5.900;2023-07-16T08:00:20;8.40;;;4.45;;
50337;SDS011;46221;51.178;5.900;2023-07-16T08:02:46;8.50;;;5.00;;
50337;SDS011;46221;51.178;5.900;2023-07-16T08:05:13;9.65;;;5.05;;
50337;SDS011;46221;51.178;5.900;2023-07-16T08:07:39;10.05;;;4.70;;
50337;SDS011;46221;51.178;5.900;2023-07-16T08:10:06;8.57;;;4.97;;
50337;SDS011;46221;51.178;5.900;2023-07-16T08:12:32;7.40;;;4.75;;
50337;SDS011;46221;51.178;5.900;2023-07-16T08:14:59;9.73;;;4.80;;
50337;SDS011;46221;51.178;5.900;2023-07-16T08:17:25;8.45;;;4.50;;
50337;SDS011;46221;51.178;5.900;2023-07-16T08:19:52;9.45;;;5.13;;
50337;SDS011;46221;51.178;5.900;2023-07-16T08:22:18;8.40;;;4.97;;
50337;SDS011;46221;51.178;5.900;2023-07-16T08:24:44;9.13;;;5.10;;
50337;SDS011;46221;51.178;5.900;2023-07-16T08:27:11;9.05;;;4.93;;
50337;SDS011;46221;51.178;5.900;2023-07-16T08:29:37;9.13;;;5.40;;
50337;SDS011;46221;51.178;5.900;2023-07-16T08:32:04;7.45;;;4.47;;
50337;SDS011;46221;51.178;5.900;2023-07-16T08:34:30;8.25;;;4.85;;
50337;SDS011;46221;51.178;5.900;2023-07-16T08:36:57;8.15;;;4.90;;
50337;SDS011;46221;51.178;5.900;2023-07-16T08:39:23;8.95;;;5.35;;
50337;SDS011;46221;51.178;5.900;2023-07-16T08:41:51;9.00;;;4.95;;
50337;SDS011;46221;51.178;5.900;2023-07-16T08:44:18;8.57;;;5.43;;
50337;SDS011;46221;51.178;5.900;2023-07-16T08:46:45;8.70;;;4.72;;
50337;SDS011;46221;51.178;5.900;2023-07-16T08:49:12;6.57;;;4.57;;
50337;SDS011;46221;51.178;5.900;2023-07-16T08:51:39;8.25;;;5.03;;
50337;SDS011;46221;51.178;5.900;2023-07-16T08:54:06;8.43;;;4.47;;
50337;SDS011;46221;51.178;5.900;2023-07-16T08:56:32;9.80;;;4.53;;
50337;SDS011;46221;51.178;5.900;2023-07-16T08:58:58;7.75;;;4.72;;
50337;SDS011;46221;51.178;5.900;2023-07-16T09:01:25;9.77;;;4.53;;
50337;SDS011;46221;51.178;5.900;2023-07-16T09:03:52;8.50;;;4.85;;
50337;SDS011;46221;51.178;5.900;2023-07-16T09:06:19;7.65;;;4.68;;
50337;SDS011;46221;51.178;5.900;2023-07-16T09:08:46;8.50;;;4.55;;
50337;SDS011;46221;51.178;5.900;2023-07-16T09:11:12;7.53;;;4.60;;
50337;SDS011;46221;51.178;5.900;2023-07-16T09:13:45;8.35;;;5.00;;
50337;SDS011;46221;51.178;5.900;2023-07-16T09:16:11;8.50;;;4.88;;
50337;SDS011;46221;51.178;5.900;2023-07-16T09:18:39;7.93;;;4.28;;
50337;SDS011;46221;51.178;5.900;2023-07-16T09:21:06;8.18;;;4.10;;
50337;SDS011;46221;51.178;5.900;2023-07-16T09:23:32;7.63;;;3.92;;
50337;SDS011;46221;51.178;5.900;2023-07-16T09:25:59;7.88;;;4.40;;
50337;SDS011;46221;51.178;5.900;2023-07-16T09:28:25;7.97;;;4.45;;
50337;SDS011;46221;51.178;5.900;2023-07-16T09:30:52;7.55;;;4.20;;
50337;SDS011;46221;51.178;5.900;2023-07-16T09:33:20;6.90;;;4.30;;
50337;SDS011;46221;51.178;5.900;2023-07-16T09:35:49;7.07;;;4.40;;
50337;SDS011;46221;51.178;5.900;2023-07-16T09:38:16;8.70;;;4.00;;
50337;SDS011;46221;51.178;5.900;2023-07-16T09:40:43;6.18;;;4.10;;
50337;SDS011;46221;51.178;5.900;2023-07-16T09:43:10;8.02;;;3.95;;
50337;SDS011;46221;51.178;5.900;2023-07-16T09:45:38;5.90;;;3.85;;
50337;SDS011;46221;51.178;5.900;2023-07-16T09:48:04;7.43;;;4.20;;
50337;SDS011;46221;51.178;5.900;2023-07-16T09:50:32;8.18;;;4.43;;
50337;SDS011;46221;51.178;5.900;2023-07-16T09:52:58;6.53;;;4.38;;
50337;SDS011;46221;51.178;5.900;2023-07-16T09:55:24;7.20;;;3.80;;
50337;SDS011;46221;51.178;5.900;2023-07-16T09:57:54;6.63;;;3.83;;
50337;SDS011;46221;51.178;5.900;2023-07-16T10:00:21;5.75;;;3.28;;
50337;SDS011;46221;51.178;5.900;2023-07-16T10:02:49;7.05;;;3.85;;
50337;SDS011;46221;51.178;5.900;2023-07-16T10:05:16;7.93;;;3.80;;
50337;SDS011;46221;51.178;5.900;2023-07-16T10:07:48;7.45;;;3.80;;
50337;SDS011;46221;51.178;5.900;2023-07-16T10:10:15;7.68;;;3.85;;
50337;SDS011;46221;51.178;5.900;2023-07-16T10:12:54;6.45;;;3.90;;
50337;SDS011;46221;51.178;5.900;2023-07-16T10:15:29;7.47;;;4.32;;
50337;SDS011;46221;51.178;5.900;2023-07-16T10:17:56;6.20;;;3.67;;
50337;SDS011;46221;51.178;5.900;2023-07-16T10:20:30;6.60;;;3.85;;
50337;SDS011;46221;51.178;5.900;2023-07-16T10:22:56;6.22;;;3.63;;
50337;SDS011;46221;51.178;5.900;2023-07-16T10:25:24;6.20;;;3.67;;
50337;SDS011;46221;51.178;5.900;2023-07-16T10:27:51;5.57;;;3.20;;
50337;SDS011;46221;51.178;5.900;2023-07-16T10:30:18;7.88;;;3.45;;
50337;SDS011;46221;51.178;5.900;2023-07-16T10:32:45;6.43;;;2.90;;
50337;SDS011;46221;51.178;5.900;2023-07-16T10:35:12;5.03;;;2.88;;
50337;SDS011;46221;51.178;5.900;2023-07-16T10:37:39;5.60;;;2.88;;
50337;SDS011;46221;51.178;5.900;2023-07-16T10:40:09;6.00;;;2.90;;
50337;SDS011;46221;51.178;5.900;2023-07-16T10:42:36;6.13;;;2.90;;
50337;SDS011;46221;51.178;5.900;2023-07-16T10:45:03;6.82;;;2.75;;
50337;SDS011;46221;51.178;5.900;2023-07-16T10:47:34;5.43;;;3.30;;
50337;SDS011;46221;51.178;5.900;2023-07-16T10:50:02;5.28;;;2.60;;
50337;SDS011;46221;51.178;5.900;2023-07-16T10:52:29;4.55;;;2.78;;
50337;SDS011;46221;51.178;5.900;2023-07-16T10:54:55;6.65;;;2.55;;
50337;SDS011;46221;51.178;5.900;2023-07-16T10:57:24;4.75;;;2.58;;
50337;SDS011;46221;51.178;5.900;2023-07-16T10:59:51;4.68;;;2.50;;
50337;SDS011;46221;51.178;5.900;2023-07-16T11:02:18;5.25;;;2.63;;
50337;SDS011;46221;51.178;5.900;2023-07-16T11:04:45;3.40;;;2.15;;
50337;SDS011;46221;51.178;5.900;2023-07-16T11:07:12;6.05;;;2.55;;
50337;SDS011;46221;51.178;5.900;2023-07-16T11:09:49;3.88;;;2.40;;
50337;SDS011;46221;51.178;5.900;2023-07-16T11:12:16;5.00;;;2.67;;
50337;SDS011;46221;51.178;5.900;2023-07-16T11:14:44;6.00;;;2.20;;
50337;SDS011;46221;51.178;5.900;2023-07-16T11:17:11;4.78;;;2.30;;
50337;SDS011;46221;51.178;5.900;2023-07-16T11:19:38;4.75;;;2.55;;
50337;SDS011;46221;51.178;5.900;2023-07-16T11:22:06;4.18;;;2.42;;
50337;SDS011;46221;51.178;5.900;2023-07-16T11:27:05;6.13;;;2.88;;
50337;SDS011;46221;51.178;5.900;2023-07-16T11:29:34;5.70;;;2.50;;
50337;SDS011;46221;51.178;5.900;2023-07-16T11:32:02;4.35;;;2.38;;
50337;SDS011;46221;51.178;5.900;2023-07-16T11:34:29;4.85;;;2.58;;
50337;SDS011;46221;51.178;5.900;2023-07-16T11:36:55;4.07;;;2.28;;
50337;SDS011;46221;51.178;5.900;2023-07-16T11:39:24;4.40;;;2.28;;
50337;SDS011;46221;51.178;5.900;2023-07-16T11:41:54;5.45;;;2.38;;
50337;SDS011;46221;51.178;5.900;2023-07-16T11:44:24;4.22;;;2.25;;
50337;SDS011;46221;51.178;5.900;2023-07-16T11:46:51;5.13;;;2.30;;
50337;SDS011;46221;51.178;5.900;2023-07-16T11:49:17;6.32;;;2.40;;
50337;SDS011;46221;51.178;5.900;2023-07-16T11:51:43;4.53;;;2.50;;
50337;SDS011;46221;51.178;5.900;2023-07-16T11:54:10;4.88;;;2.20;;
50337;SDS011;46221;51.178;5.900;2023-07-16T11:56:37;6.68;;;2.30;;
50337;SDS011;46221;51.178;5.900;2023-07-16T11:59:03;5.05;;;2.35;;
50337;SDS011;46221;51.178;5.900;2023-07-16T12:01:30;7.13;;;2.25;;
50337;SDS011;46221;51.178;5.900;2023-07-16T12:03:56;7.18;;;2.40;;
50337;SDS011;46221;51.178;5.900;2023-07-16T12:06:23;9.32;;;2.40;;
50337;SDS011;46221;51.178;5.900;2023-07-16T12:08:49;7.30;;;2.30;;
50337;SDS011;46221;51.178;5.900;2023-07-16T12:11:16;7.53;;;2.22;;
50337;SDS011;46221;51.178;5.900;2023-07-16T12:13:43;7.43;;;2.63;;
50337;SDS011;46221;51.178;5.900;2023-07-16T12:16:09;5.20;;;2.60;;
50337;SDS011;46221;51.178;5.900;2023-07-16T12:18:35;4.93;;;2.35;;
50337;SDS011;46221;51.178;5.900;2023-07-16T12:21:04;5.88;;;2.42;;
50337;SDS011;46221;51.178;5.900;2023-07-16T12:23:32;5.20;;;2.45;;
50337;SDS011;46221;51.178;5.900;2023-07-16T12:25:58;3.90;;;2.15;;
50337;SDS011;46221;51.178;5.900;2023-07-16T12:28:24;4.88;;;2.30;;
50337;SDS011;46221;51.178;5.900;2023-07-16T12:30:51;7.32;;;2.38;;
50337;SDS011;46221;51.178;5.900;2023-07-16T12:33:18;4.43;;;2.45;;
50337;SDS011;46221;51.178;5.900;2023-07-16T12:35:44;5.63;;;2.50;;
50337;SDS011;46221;51.178;5.900;2023-07-16T12:38:11;5.78;;;2.35;;
50337;SDS011;46221;51.178;5.900;2023-07-16T12:40:37;5.95;;;2.47;;
50337;SDS011;46221;51.178;5.900;2023-07-16T12:43:06;5.05;;;2.03;;
50337;SDS011;46221;51.178;5.900;2023-07-16T12:45:33;6.75;;;3.00;;
50337;SDS011;46221;51.178;5.900;2023-07-16T12:47:59;5.28;;;2.28;;
50337;SDS011;46221;51.178;5.900;2023-07-16T12:50:26;5.85;;;2.45;;
50337;SDS011;46221;51.178;5.900;2023-07-16T12:52:55;4.57;;;2.25;;
50337;SDS011;46221;51.178;5.900;2023-07-16T12:55:21;4.22;;;2.38;;
50337;SDS011;46221;51.178;5.900;2023-07-16T12:57:47;5.20;;;2.20;;
50337;SDS011;46221;51.178;5.900;2023-07-16T13:00:14;4.63;;;1.90;;
50337;SDS011;46221;51.178;5.900;2023-07-16T13:02:40;3.67;;;2.20;;
50337;SDS011;46221;51.178;5.900;2023-07-16T13:05:07;4.53;;;2.10;;
50337;SDS011;46221;51.178;5.900;2023-07-16T13:07:33;3.80;;;2.00;;
50337;SDS011;46221;51.178;5.900;2023-07-16T13:10:00;4.60;;;1.70;;
50337;SDS011;46221;51.178;5.900;2023-07-16T13:12:37;4.82;;;2.40;;
50337;SDS011;46221;51.178;5.900;2023-07-16T13:15:06;3.20;;;1.73;;
50337;SDS011;46221;51.178;5.900;2023-07-16T13:17:35;3.55;;;1.92;;
50337;SDS011;46221;51.178;5.900;2023-07-16T13:20:04;4.28;;;2.03;;
50337;SDS011;46221;51.178;5.900;2023-07-16T13:22:31;4.80;;;2.13;;
50337;SDS011;46221;51.178;5.900;2023-07-16T13:24:57;3.60;;;1.77;;
50337;SDS011;46221;51.178;5.900;2023-07-16T13:27:24;4.75;;;1.80;;
50337;SDS011;46221;51.178;5.900;2023-07-16T13:29:50;3.28;;;1.92;;
50337;SDS011;46221;51.178;5.900;2023-07-16T13:32:16;3.22;;;1.92;;
50337;SDS011;46221;51.178;5.900;2023-07-16T13:34:43;2.88;;;1.80;;
50337;SDS011;46221;51.178;5.900;2023-07-16T13:37:09;3.92;;;1.80;;
50337;SDS011;46221;51.178;5.900;2023-07-16T13:39:36;3.22;;;1.90;;
50337;SDS011;46221;51.178;5.900;2023-07-16T13:42:02;4.43;;;2.30;;
50337;SDS011;46221;51.178;5.900;2023-07-16T13:47:14;3.83;;;2.13;;
50337;SDS011;46221;51.178;5.900;2023-07-16T13:49:40;4.18;;;1.92;;
50337;SDS011;46221;51.178;5.900;2023-07-16T13:52:07;4.00;;;2.17;;
50337;SDS011;46221;51.178;5.900;2023-07-16T13:54:33;4.72;;;2.20;;
50337;SDS011;46221;51.178;5.900;2023-07-16T13:56:59;3.45;;;1.90;;
50337;SDS011;46221;51.178;5.900;2023-07-16T13:59:26;3.17;;;1.77;;
50337;SDS011;46221;51.178;5.900;2023-07-16T14:01:59;3.17;;;2.00;;
50337;SDS011;46221;51.178;5.900;2023-07-16T14:04:27;3.20;;;1.75;;
50337;SDS011;46221;51.178;5.900;2023-07-16T14:06:53;3.85;;;2.03;;
50337;SDS011;46221;51.178;5.900;2023-07-16T14:09:21;3.92;;;2.22;;
50337;SDS011;46221;51.178;5.900;2023-07-16T14:11:47;3.85;;;1.80;;
50337;SDS011;46221;51.178;5.900;2023-07-16T14:14:14;3.00;;;1.60;;
50337;SDS011;46221;51.178;5.900;2023-07-16T14:16:41;4.80;;;2.00;;
50337;SDS011;46221;51.178;5.900;2023-07-16T14:19:07;3.15;;;1.70;;
50337;SDS011;46221;51.178;5.900;2023-07-16T14:21:34;2.92;;;1.67;;
50337;SDS011;46221;51.178;5.900;2023-07-16T14:24:00;3.63;;;1.77;;
50337;SDS011;46221;51.178;5.900;2023-07-16T14:26:26;3.10;;;1.70;;
50337;SDS011;46221;51.178;5.900;2023-07-16T14:28:53;3.72;;;1.88;;
50337;SDS011;46221;51.178;5.900;2023-07-16T14:31:19;4.57;;;2.03;;
50337;SDS011;46221;51.178;5.900;2023-07-16T14:33:45;3.33;;;1.70;;
50337;SDS011;46221;51.178;5.900;2023-07-16T14:36:12;3.10;;;2.00;;
50337;SDS011;46221;51.178;5.900;2023-07-16T14:38:38;6.25;;;2.20;;
50337;SDS011;46221;51.178;5.900;2023-07-16T14:41:05;3.92;;;2.00;;
50337;SDS011;46221;51.178;5.900;2023-07-16T14:43:32;4.65;;;1.90;;
50337;SDS011;46221;51.178;5.900;2023-07-16T14:45:59;4.28;;;1.90;;
50337;SDS011;46221;51.178;5.900;2023-07-16T14:48:25;4.78;;;2.00;;
50337;SDS011;46221;51.178;5.900;2023-07-16T14:50:55;3.88;;;2.17;;
50337;SDS011;46221;51.178;5.900;2023-07-16T14:53:21;4.05;;;1.70;;
50337;SDS011;46221;51.178;5.900;2023-07-16T14:55:48;4.38;;;1.98;;
50337;SDS011;46221;51.178;5.900;2023-07-16T14:58:15;3.40;;;1.75;;